sensor_id;sensor_type;location;lat;lon;timestamp;temperature;humidity
4910;DHT22;2470;49.868;8.660;2023-05-20T00:00:49;15.40;71.30
4910;DHT22;2470;49.868;8.660;2023-05-20T00:03:16;15.40;71.70
4910;DHT22;2470;49.868;8.660;2023-05-20T00:05:41;15.40;71.90
4910;DHT22;2470;49.868;8.660;2023-05-20T00:08:07;15.40;72.30
4910;DHT22;2470;49.868;8.660;2023-05-20T00:10:34;15.40;72.30
4910;DHT22;2470;49.868;8.660;2023-05-20T00:13:00;15.30;72.50
4910;DHT22;2470;49.868;8.660;2023-05-20T00:15:26;15.30;72.80
4910;DHT22;2470;49.868;8.660;2023-05-20T00:17:51;15.30;73.00
4910;DHT22;2470;49.868;8.660;2023-05-20T00:20:17;15.20;73.10
4910;DHT22;2470;49.868;8.660;2023-05-20T00:22:43;15.20;73.60
4910;DHT22;2470;49.868;8.660;2023-05-20T00:25:08;15.20;73.80
4910;DHT22;2470;49.868;8.660;2023-05-20T00:27:34;15.20;74.00
4910;DHT22;2470;49.868;8.660;2023-05-20T00:29:59;15.10;74.20
4910;DHT22;2470;49.868;8.660;2023-05-20T00:32:25;15.10;74.60
4910;DHT22;2470;49.868;8.660;2023-05-20T00:34:57;15.10;74.90
4910;DHT22;2470;49.868;8.660;2023-05-20T00:37:23;15.10;75.20
4910;DHT22;2470;49.868;8.660;2023-05-20T00:39:49;15.00;75.40
4910;DHT22;2470;49.868;8.660;2023-05-20T00:42:19;15.10;76.00
4910;DHT22;2470;49.868;8.660;2023-05-20T00:44:45;15.10;76.20
4910;DHT22;2470;49.868;8.660;2023-05-20T00:47:11;15.00;76.20
4910;DHT22;2470;49.868;8.660;2023-05-20T00:49:37;15.00;76.50
4910;DHT22;2470;49.868;8.660;2023-05-20T00:52:02;15.00;76.80
4910;DHT22;2470;49.868;8.660;2023-05-20T00:54:28;15.00;77.10
4910;DHT22;2470;49.868;8.660;2023-05-20T00:56:54;15.00;77.40
4910;DHT22;2470;49.868;8.660;2023-05-20T00:59:20;15.00;77.80
4910;DHT22;2470;49.868;8.660;2023-05-20T01:01:45;14.90;78.10
4910;DHT22;2470;49.868;8.660;2023-05-20T01:04:11;14.90;78.50
4910;DHT22;2470;49.868;8.660;2023-05-20T01:06:37;14.90;78.90
4910;DHT22;2470;49.868;8.660;2023-05-20T01:09:02;14.90;79.30
4910;DHT22;2470;49.868;8.660;2023-05-20T01:11:33;14.80;79.70
4910;DHT22;2470;49.868;8.660;2023-05-20T01:14:03;14.80;80.10
4910;DHT22;2470;49.868;8.660;2023-05-20T01:16:31;14.80;80.50
4910;DHT22;2470;49.868;8.660;2023-05-20T01:18:58;14.80;80.80
4910;DHT22;2470;49.868;8.660;2023-05-20T01:21:24;14.80;80.90
4910;DHT22;2470;49.868;8.660;2023-05-20T01:23:51;14.80;81.30
4910;DHT22;2470;49.868;8.660;2023-05-20T01:26:17;14.70;81.60
4910;DHT22;2470;49.868;8.660;2023-05-20T01:28:43;14.70;81.90
4910;DHT22;2470;49.868;8.660;2023-05-20T01:31:17;14.70;82.20
4910;DHT22;2470;49.868;8.660;2023-05-20T01:33:46;14.70;82.50
4910;DHT22;2470;49.868;8.660;2023-05-20T01:36:14;14.70;83.10
4910;DHT22;2470;49.868;8.660;2023-05-20T01:38:40;14.60;83.40
4910;DHT22;2470;49.868;8.660;2023-05-20T01:41:06;14.60;83.90
4910;DHT22;2470;49.868;8.660;2023-05-20T01:43:32;14.60;84.40
4910;DHT22;2470;49.868;8.660;2023-05-20T01:45:58;14.60;84.90
4910;DHT22;2470;49.868;8.660;2023-05-20T01:48:27;14.60;85.30
4910;DHT22;2470;49.868;8.660;2023-05-20T01:50:52;14.60;85.80
4910;DHT22;2470;49.868;8.660;2023-05-20T01:53:17;14.60;86.30
4910;DHT22;2470;49.868;8.660;2023-05-20T01:55:43;14.50;86.50
4910;DHT22;2470;49.868;8.660;2023-05-20T01:58:08;14.50;87.10
4910;DHT22;2470;49.868;8.660;2023-05-20T02:00:34;14.50;87.50
4910;DHT22;2470;49.868;8.660;2023-05-20T02:03:00;14.50;88.10
4910;DHT22;2470;49.868;8.660;2023-05-20T02:05:28;14.50;88.50
4910;DHT22;2470;49.868;8.660;2023-05-20T02:07:53;14.50;89.10
4910;DHT22;2470;49.868;8.660;2023-05-20T02:10:19;14.40;89.50
4910;DHT22;2470;49.868;8.660;2023-05-20T02:12:44;14.40;90.00
4910;DHT22;2470;49.868;8.660;2023-05-20T02:15:12;14.40;90.30
4910;DHT22;2470;49.868;8.660;2023-05-20T02:17:39;14.40;90.50
4910;DHT22;2470;49.868;8.660;2023-05-20T02:20:05;14.40;90.70
4910;DHT22;2470;49.868;8.660;2023-05-20T02:22:32;14.30;91.00
4910;DHT22;2470;49.868;8.660;2023-05-20T02:24:57;14.30;91.40
4910;DHT22;2470;49.868;8.660;2023-05-20T02:27:23;14.30;91.40
4910;DHT22;2470;49.868;8.660;2023-05-20T02:29:48;14.30;91.60
4910;DHT22;2470;49.868;8.660;2023-05-20T02:32:14;14.30;91.90
4910;DHT22;2470;49.868;8.660;2023-05-20T02:34:39;14.30;92.10
4910;DHT22;2470;49.868;8.660;2023-05-20T02:37:05;14.30;92.30
4910;DHT22;2470;49.868;8.660;2023-05-20T02:39:30;14.30;92.50
4910;DHT22;2470;49.868;8.660;2023-05-20T02:41:56;14.30;92.60
4910;DHT22;2470;49.868;8.660;2023-05-20T02:44:21;14.30;92.80
4910;DHT22;2470;49.868;8.660;2023-05-20T02:46:47;14.30;93.00
4910;DHT22;2470;49.868;8.660;2023-05-20T02:49:12;14.30;93.20
4910;DHT22;2470;49.868;8.660;2023-05-20T02:51:39;14.20;93.30
4910;DHT22;2470;49.868;8.660;2023-05-20T02:54:10;14.20;93.50
4910;DHT22;2470;49.868;8.660;2023-05-20T02:56:36;14.30;93.80
4910;DHT22;2470;49.868;8.660;2023-05-20T02:59:01;14.30;93.90
4910;DHT22;2470;49.868;8.660;2023-05-20T03:01:29;14.30;94.10
4910;DHT22;2470;49.868;8.660;2023-05-20T03:03:54;14.30;94.40
4910;DHT22;2470;49.868;8.660;2023-05-20T03:06:20;14.20;94.60
4910;DHT22;2470;49.868;8.660;2023-05-20T03:08:45;14.20;94.70
4910;DHT22;2470;49.868;8.660;2023-05-20T03:11:11;14.20;94.80
4910;DHT22;2470;49.868;8.660;2023-05-20T03:13:36;14.20;95.10
4910;DHT22;2470;49.868;8.660;2023-05-20T03:16:02;14.20;95.20
4910;DHT22;2470;49.868;8.660;2023-05-20T03:18:27;14.30;95.40
4910;DHT22;2470;49.868;8.660;2023-05-20T03:20:53;14.20;95.50
4910;DHT22;2470;49.868;8.660;2023-05-20T03:23:18;14.20;95.70
4910;DHT22;2470;49.868;8.660;2023-05-20T03:25:44;14.20;95.90
4910;DHT22;2470;49.868;8.660;2023-05-20T03:28:10;14.20;96.10
4910;DHT22;2470;49.868;8.660;2023-05-20T03:30:36;14.20;96.30
4910;DHT22;2470;49.868;8.660;2023-05-20T03:33:02;14.20;96.50
4910;DHT22;2470;49.868;8.660;2023-05-20T03:35:27;14.20;96.70
4910;DHT22;2470;49.868;8.660;2023-05-20T03:37:53;14.20;96.80
4910;DHT22;2470;49.868;8.660;2023-05-20T03:40:19;14.20;97.00
4910;DHT22;2470;49.868;8.660;2023-05-20T03:42:47;14.20;97.20
4910;DHT22;2470;49.868;8.660;2023-05-20T03:45:14;14.20;97.40
4910;DHT22;2470;49.868;8.660;2023-05-20T03:47:39;14.20;97.50
4910;DHT22;2470;49.868;8.660;2023-05-20T03:50:05;14.20;97.70
4910;DHT22;2470;49.868;8.660;2023-05-20T03:52:32;14.20;97.80
4910;DHT22;2470;49.868;8.660;2023-05-20T03:54:57;14.20;97.90
4910;DHT22;2470;49.868;8.660;2023-05-20T03:57:23;14.20;98.10
4910;DHT22;2470;49.868;8.660;2023-05-20T03:59:48;14.20;98.20
4910;DHT22;2470;49.868;8.660;2023-05-20T04:02:14;14.20;98.40
4910;DHT22;2470;49.868;8.660;2023-05-20T04:04:39;14.30;98.60
4910;DHT22;2470;49.868;8.660;2023-05-20T04:07:07;14.20;98.70
4910;DHT22;2470;49.868;8.660;2023-05-20T04:09:33;14.30;98.90
4910;DHT22;2470;49.868;8.660;2023-05-20T04:11:59;14.30;99.00
4910;DHT22;2470;49.868;8.660;2023-05-20T04:14:24;14.30;99.10
4910;DHT22;2470;49.868;8.660;2023-05-20T04:16:49;14.40;99.20
4910;DHT22;2470;49.868;8.660;2023-05-20T04:19:15;14.40;99.30
4910;DHT22;2470;49.868;8.660;2023-05-20T04:21:43;14.40;99.40
4910;DHT22;2470;49.868;8.660;2023-05-20T04:24:09;14.50;99.50
4910;DHT22;2470;49.868;8.660;2023-05-20T04:26:35;14.50;99.50
4910;DHT22;2470;49.868;8.660;2023-05-20T04:29:01;14.50;99.60
4910;DHT22;2470;49.868;8.660;2023-05-20T04:31:28;14.50;99.70
4910;DHT22;2470;49.868;8.660;2023-05-20T04:33:55;14.60;99.90
4910;DHT22;2470;49.868;8.660;2023-05-20T04:36:21;14.60;99.90
4910;DHT22;2470;49.868;8.660;2023-05-20T04:38:46;14.60;99.90
4910;DHT22;2470;49.868;8.660;2023-05-20T04:41:12;14.60;99.90
4910;DHT22;2470;49.868;8.660;2023-05-20T04:43:38;14.70;99.90
4910;DHT22;2470;49.868;8.660;2023-05-20T04:46:04;14.70;99.90
4910;DHT22;2470;49.868;8.660;2023-05-20T04:48:33;14.70;99.90
4910;DHT22;2470;49.868;8.660;2023-05-20T04:50:59;14.70;99.90
4910;DHT22;2470;49.868;8.660;2023-05-20T04:53:24;14.80;99.90
4910;DHT22;2470;49.868;8.660;2023-05-20T04:55:54;14.80;99.90
4910;DHT22;2470;49.868;8.660;2023-05-20T04:58:24;14.80;99.90
4910;DHT22;2470;49.868;8.660;2023-05-20T05:00:50;14.90;99.90
4910;DHT22;2470;49.868;8.660;2023-05-20T05:03:16;15.00;99.90
4910;DHT22;2470;49.868;8.660;2023-05-20T05:05:42;15.00;99.90
4910;DHT22;2470;49.868;8.660;2023-05-20T05:08:08;15.10;99.90
4910;DHT22;2470;49.868;8.660;2023-05-20T05:10:35;15.10;99.90
4910;DHT22;2470;49.868;8.660;2023-05-20T05:13:01;15.20;99.90
4910;DHT22;2470;49.868;8.660;2023-05-20T05:15:27;15.20;99.90
4910;DHT22;2470;49.868;8.660;2023-05-20T05:17:53;15.30;99.90
4910;DHT22;2470;49.868;8.660;2023-05-20T05:20:18;15.30;99.90
4910;DHT22;2470;49.868;8.660;2023-05-20T05:22:44;15.30;99.90
4910;DHT22;2470;49.868;8.660;2023-05-20T05:25:11;15.30;99.90
4910;DHT22;2470;49.868;8.660;2023-05-20T05:27:37;15.30;99.90
4910;DHT22;2470;49.868;8.660;2023-05-20T05:30:04;15.40;99.90
4910;DHT22;2470;49.868;8.660;2023-05-20T05:32:30;15.40;99.90
4910;DHT22;2470;49.868;8.660;2023-05-20T05:34:55;15.50;99.90
4910;DHT22;2470;49.868;8.660;2023-05-20T05:37:21;15.50;99.90
4910;DHT22;2470;49.868;8.660;2023-05-20T05:39:46;15.60;99.90
4910;DHT22;2470;49.868;8.660;2023-05-20T05:42:12;15.60;99.90
4910;DHT22;2470;49.868;8.660;2023-05-20T05:44:38;15.50;99.90
4910;DHT22;2470;49.868;8.660;2023-05-20T05:47:04;15.50;99.90
4910;DHT22;2470;49.868;8.660;2023-05-20T05:49:31;15.50;99.90
4910;DHT22;2470;49.868;8.660;2023-05-20T05:51:57;15.50;99.90
4910;DHT22;2470;49.868;8.660;2023-05-20T05:54:22;15.50;99.90
4910;DHT22;2470;49.868;8.660;2023-05-20T05:56:50;15.50;99.90
4910;DHT22;2470;49.868;8.660;2023-05-20T05:59:15;15.50;99.90
4910;DHT22;2470;49.868;8.660;2023-05-20T06:01:41;15.50;99.90
4910;DHT22;2470;49.868;8.660;2023-05-20T06:04:06;15.60;99.90
4910;DHT22;2470;49.868;8.660;2023-05-20T06:06:33;15.60;99.90
4910;DHT22;2470;49.868;8.660;2023-05-20T06:08:58;15.70;99.90
4910;DHT22;2470;49.868;8.660;2023-05-20T06:11:24;15.70;99.90
4910;DHT22;2470;49.868;8.660;2023-05-20T06:13:50;15.70;99.90
4910;DHT22;2470;49.868;8.660;2023-05-20T06:16:16;15.80;99.90
4910;DHT22;2470;49.868;8.660;2023-05-20T06:18:42;15.80;99.90
4910;DHT22;2470;49.868;8.660;2023-05-20T06:21:07;15.80;99.90
4910;DHT22;2470;49.868;8.660;2023-05-20T06:23:33;15.90;99.90
4910;DHT22;2470;49.868;8.660;2023-05-20T06:25:59;15.90;99.90
4910;DHT22;2470;49.868;8.660;2023-05-20T06:28:25;16.00;99.90
4910;DHT22;2470;49.868;8.660;2023-05-20T06:30:52;16.00;99.90
4910;DHT22;2470;49.868;8.660;2023-05-20T06:33:19;16.00;99.90
4910;DHT22;2470;49.868;8.660;2023-05-20T06:35:44;16.10;99.90
4910;DHT22;2470;49.868;8.660;2023-05-20T06:38:10;16.10;99.90
4910;DHT22;2470;49.868;8.660;2023-05-20T06:40:36;16.20;99.90
4910;DHT22;2470;49.868;8.660;2023-05-20T06:43:01;16.20;99.90
4910;DHT22;2470;49.868;8.660;2023-05-20T06:45:27;16.30;99.90
4910;DHT22;2470;49.868;8.660;2023-05-20T06:47:52;16.30;99.90
4910;DHT22;2470;49.868;8.660;2023-05-20T06:50:18;16.30;99.90
4910;DHT22;2470;49.868;8.660;2023-05-20T06:52:44;16.30;99.90
4910;DHT22;2470;49.868;8.660;2023-05-20T06:55:10;16.40;99.90
4910;DHT22;2470;49.868;8.660;2023-05-20T06:57:35;16.40;99.90
4910;DHT22;2470;49.868;8.660;2023-05-20T07:00:02;16.40;99.90
4910;DHT22;2470;49.868;8.660;2023-05-20T07:02:28;16.50;99.90
4910;DHT22;2470;49.868;8.660;2023-05-20T07:04:53;16.50;99.90
4910;DHT22;2470;49.868;8.660;2023-05-20T07:07:19;16.50;99.90
4910;DHT22;2470;49.868;8.660;2023-05-20T07:09:44;16.50;99.90
4910;DHT22;2470;49.868;8.660;2023-05-20T07:12:10;16.50;99.90
4910;DHT22;2470;49.868;8.660;2023-05-20T07:14:35;16.50;99.90
4910;DHT22;2470;49.868;8.660;2023-05-20T07:17:01;16.50;99.90
4910;DHT22;2470;49.868;8.660;2023-05-20T07:19:26;16.50;99.90
4910;DHT22;2470;49.868;8.660;2023-05-20T07:21:52;16.50;99.90
4910;DHT22;2470;49.868;8.660;2023-05-20T07:24:17;16.60;99.90
4910;DHT22;2470;49.868;8.660;2023-05-20T07:26:43;16.60;99.90
4910;DHT22;2470;49.868;8.660;2023-05-20T07:29:09;16.70;99.90
4910;DHT22;2470;49.868;8.660;2023-05-20T07:31:34;16.70;99.90
4910;DHT22;2470;49.868;8.660;2023-05-20T07:34:00;16.90;99.90
4910;DHT22;2470;49.868;8.660;2023-05-20T07:36:27;17.00;99.90
4910;DHT22;2470;49.868;8.660;2023-05-20T07:38:52;17.20;99.90
4910;DHT22;2470;49.868;8.660;2023-05-20T07:41:18;17.30;99.90
4910;DHT22;2470;49.868;8.660;2023-05-20T07:43:45;17.50;99.80
4910;DHT22;2470;49.868;8.660;2023-05-20T07:46:11;17.60;99.40
4910;DHT22;2470;49.868;8.660;2023-05-20T07:48:36;17.70;99.40
4910;DHT22;2470;49.868;8.660;2023-05-20T07:51:02;17.70;99.30
4910;DHT22;2470;49.868;8.660;2023-05-20T07:53:27;17.70;99.10
4910;DHT22;2470;49.868;8.660;2023-05-20T07:55:53;17.80;99.20
4910;DHT22;2470;49.868;8.660;2023-05-20T07:58:18;17.80;99.10
4910;DHT22;2470;49.868;8.660;2023-05-20T08:00:44;17.90;99.00
4910;DHT22;2470;49.868;8.660;2023-05-20T08:03:09;17.90;98.90
4910;DHT22;2470;49.868;8.660;2023-05-20T08:05:36;18.00;99.00
4910;DHT22;2470;49.868;8.660;2023-05-20T08:08:03;18.10;99.10
4910;DHT22;2470;49.868;8.660;2023-05-20T08:10:28;18.20;98.80
4910;DHT22;2470;49.868;8.660;2023-05-20T08:12:54;18.30;98.40
4910;DHT22;2470;49.868;8.660;2023-05-20T08:15:20;18.40;98.30
4910;DHT22;2470;49.868;8.660;2023-05-20T08:17:45;18.40;98.30
4910;DHT22;2470;49.868;8.660;2023-05-20T08:20:11;18.50;98.40
4910;DHT22;2470;49.868;8.660;2023-05-20T08:22:37;18.60;98.20
4910;DHT22;2470;49.868;8.660;2023-05-20T08:25:05;18.70;98.20
4910;DHT22;2470;49.868;8.660;2023-05-20T08:27:32;18.80;98.20
4910;DHT22;2470;49.868;8.660;2023-05-20T08:29:57;19.00;98.10
4910;DHT22;2470;49.868;8.660;2023-05-20T08:32:23;19.20;97.70
4910;DHT22;2470;49.868;8.660;2023-05-20T08:34:48;19.20;97.30
4910;DHT22;2470;49.868;8.660;2023-05-20T08:37:14;19.30;97.20
4910;DHT22;2470;49.868;8.660;2023-05-20T08:39:40;19.30;97.20
4910;DHT22;2470;49.868;8.660;2023-05-20T08:42:07;19.40;97.30
4910;DHT22;2470;49.868;8.660;2023-05-20T08:44:33;19.40;96.80
4910;DHT22;2470;49.868;8.660;2023-05-20T08:47:00;19.40;96.60
4910;DHT22;2470;49.868;8.660;2023-05-20T08:49:28;19.30;96.40
4910;DHT22;2470;49.868;8.660;2023-05-20T08:51:54;19.40;96.40
4910;DHT22;2470;49.868;8.660;2023-05-20T08:54:20;19.40;96.50
4910;DHT22;2470;49.868;8.660;2023-05-20T08:56:48;19.40;96.60
4910;DHT22;2470;49.868;8.660;2023-05-20T08:59:14;19.40;96.70
4910;DHT22;2470;49.868;8.660;2023-05-20T09:01:43;19.50;96.60
4910;DHT22;2470;49.868;8.660;2023-05-20T09:04:09;19.50;96.30
4910;DHT22;2470;49.868;8.660;2023-05-20T09:06:44;19.60;96.00
4910;DHT22;2470;49.868;8.660;2023-05-20T09:09:13;19.70;96.00
4910;DHT22;2470;49.868;8.660;2023-05-20T09:11:40;19.90;96.30
4910;DHT22;2470;49.868;8.660;2023-05-20T09:14:06;20.10;96.20
4910;DHT22;2470;49.868;8.660;2023-05-20T09:16:32;20.10;95.80
4910;DHT22;2470;49.868;8.660;2023-05-20T09:18:57;20.20;95.60
4910;DHT22;2470;49.868;8.660;2023-05-20T09:21:27;20.20;95.20
4910;DHT22;2470;49.868;8.660;2023-05-20T09:23:52;20.20;94.90
4910;DHT22;2470;49.868;8.660;2023-05-20T09:26:19;20.20;94.60
4910;DHT22;2470;49.868;8.660;2023-05-20T09:28:45;20.20;94.50
4910;DHT22;2470;49.868;8.660;2023-05-20T09:31:13;20.20;94.20
4910;DHT22;2470;49.868;8.660;2023-05-20T09:33:39;20.10;94.40
4910;DHT22;2470;49.868;8.660;2023-05-20T09:36:08;20.20;94.80
4910;DHT22;2470;49.868;8.660;2023-05-20T09:38:38;20.20;94.80
4910;DHT22;2470;49.868;8.660;2023-05-20T09:41:12;20.30;94.50
4910;DHT22;2470;49.868;8.660;2023-05-20T09:43:40;20.20;94.50
4910;DHT22;2470;49.868;8.660;2023-05-20T09:46:06;20.20;94.70
4910;DHT22;2470;49.868;8.660;2023-05-20T09:48:34;20.20;94.70
4910;DHT22;2470;49.868;8.660;2023-05-20T09:51:02;20.30;94.50
4910;DHT22;2470;49.868;8.660;2023-05-20T09:53:28;20.40;94.30
4910;DHT22;2470;49.868;8.660;2023-05-20T09:55:54;20.40;93.80
4910;DHT22;2470;49.868;8.660;2023-05-20T09:58:22;20.30;94.00
4910;DHT22;2470;49.868;8.660;2023-05-20T10:00:47;20.20;94.30
4910;DHT22;2470;49.868;8.660;2023-05-20T10:03:13;20.20;94.30
4910;DHT22;2470;49.868;8.660;2023-05-20T10:05:48;20.10;94.30
4910;DHT22;2470;49.868;8.660;2023-05-20T10:08:34;20.10;94.10
4910;DHT22;2470;49.868;8.660;2023-05-20T10:11:18;20.20;94.10
4910;DHT22;2470;49.868;8.660;2023-05-20T10:16:38;20.50;93.70
4910;DHT22;2470;49.868;8.660;2023-05-20T10:19:29;20.50;93.60
4910;DHT22;2470;49.868;8.660;2023-05-20T10:22:05;20.60;93.40
4910;DHT22;2470;49.868;8.660;2023-05-20T10:27:01;20.70;93.00
4910;DHT22;2470;49.868;8.660;2023-05-20T10:29:28;20.80;93.40
4910;DHT22;2470;49.868;8.660;2023-05-20T10:31:53;20.90;93.20
4910;DHT22;2470;49.868;8.660;2023-05-20T10:34:21;21.00;93.40
4910;DHT22;2470;49.868;8.660;2023-05-20T10:36:57;21.20;93.00
4910;DHT22;2470;49.868;8.660;2023-05-20T10:39:29;21.40;92.80
4910;DHT22;2470;49.868;8.660;2023-05-20T10:42:09;21.50;92.10
4910;DHT22;2470;49.868;8.660;2023-05-20T10:44:45;21.50;92.10
4910;DHT22;2470;49.868;8.660;2023-05-20T10:47:12;21.50;92.00
4910;DHT22;2470;49.868;8.660;2023-05-20T10:49:44;21.40;91.90
4910;DHT22;2470;49.868;8.660;2023-05-20T10:52:13;21.40;91.80
4910;DHT22;2470;49.868;8.660;2023-05-20T10:54:43;21.30;91.80
4910;DHT22;2470;49.868;8.660;2023-05-20T10:57:10;21.30;92.10
4910;DHT22;2470;49.868;8.660;2023-05-20T10:59:35;21.30;91.80
4910;DHT22;2470;49.868;8.660;2023-05-20T11:02:02;21.40;92.20
4910;DHT22;2470;49.868;8.660;2023-05-20T11:04:28;21.60;91.80
4910;DHT22;2470;49.868;8.660;2023-05-20T11:06:54;21.70;91.40
4910;DHT22;2470;49.868;8.660;2023-05-20T11:09:20;21.70;91.00
4910;DHT22;2470;49.868;8.660;2023-05-20T11:11:46;21.80;90.80
4910;DHT22;2470;49.868;8.660;2023-05-20T11:14:12;21.90;90.90
4910;DHT22;2470;49.868;8.660;2023-05-20T11:16:40;22.00;90.40
4910;DHT22;2470;49.868;8.660;2023-05-20T11:19:16;22.10;90.80
4910;DHT22;2470;49.868;8.660;2023-05-20T11:21:44;22.20;90.80
4910;DHT22;2470;49.868;8.660;2023-05-20T11:24:10;22.50;90.50
4910;DHT22;2470;49.868;8.660;2023-05-20T11:26:36;22.70;89.60
4910;DHT22;2470;49.868;8.660;2023-05-20T11:29:02;22.80;88.60
4910;DHT22;2470;49.868;8.660;2023-05-20T11:31:27;22.70;88.50
4910;DHT22;2470;49.868;8.660;2023-05-20T11:33:53;22.70;88.00
4910;DHT22;2470;49.868;8.660;2023-05-20T11:36:18;22.60;87.20
4910;DHT22;2470;49.868;8.660;2023-05-20T11:38:47;22.50;87.80
4910;DHT22;2470;49.868;8.660;2023-05-20T11:41:12;22.60;86.50
4910;DHT22;2470;49.868;8.660;2023-05-20T11:43:38;22.70;87.30
4910;DHT22;2470;49.868;8.660;2023-05-20T11:46:04;22.80;87.50
4910;DHT22;2470;49.868;8.660;2023-05-20T11:48:29;23.10;87.30
4910;DHT22;2470;49.868;8.660;2023-05-20T11:50:55;23.30;87.10
4910;DHT22;2470;49.868;8.660;2023-05-20T11:53:22;23.50;86.40
4910;DHT22;2470;49.868;8.660;2023-05-20T11:55:58;23.50;84.50
4910;DHT22;2470;49.868;8.660;2023-05-20T11:58:33;23.50;84.50
4910;DHT22;2470;49.868;8.660;2023-05-20T12:00:58;23.50;84.30
4910;DHT22;2470;49.868;8.660;2023-05-20T12:03:24;23.60;84.50
4910;DHT22;2470;49.868;8.660;2023-05-20T12:05:50;23.80;84.10
4910;DHT22;2470;49.868;8.660;2023-05-20T12:08:16;23.80;82.20
4910;DHT22;2470;49.868;8.660;2023-05-20T12:10:41;23.90;81.30
4910;DHT22;2470;49.868;8.660;2023-05-20T12:13:09;23.90;81.20
4910;DHT22;2470;49.868;8.660;2023-05-20T12:15:38;23.90;81.50
4910;DHT22;2470;49.868;8.660;2023-05-20T12:18:03;23.70;81.20
4910;DHT22;2470;49.868;8.660;2023-05-20T12:20:29;23.70;81.90
4910;DHT22;2470;49.868;8.660;2023-05-20T12:22:56;23.70;82.00
4910;DHT22;2470;49.868;8.660;2023-05-20T12:25:22;23.70;81.40
4910;DHT22;2470;49.868;8.660;2023-05-20T12:27:48;23.70;81.40
4910;DHT22;2470;49.868;8.660;2023-05-20T12:30:15;23.60;81.60
4910;DHT22;2470;49.868;8.660;2023-05-20T12:32:42;23.50;81.30
4910;DHT22;2470;49.868;8.660;2023-05-20T12:35:08;23.50;81.70
4910;DHT22;2470;49.868;8.660;2023-05-20T12:37:34;23.90;81.80
4910;DHT22;2470;49.868;8.660;2023-05-20T12:40:00;24.50;82.10
4910;DHT22;2470;49.868;8.660;2023-05-20T12:42:26;25.00;80.80
4910;DHT22;2470;49.868;8.660;2023-05-20T12:44:52;26.40;78.40
4910;DHT22;2470;49.868;8.660;2023-05-20T12:47:19;28.60;74.40
4910;DHT22;2470;49.868;8.660;2023-05-20T12:49:45;30.00;68.90
4910;DHT22;2470;49.868;8.660;2023-05-20T12:52:10;31.40;63.90
4910;DHT22;2470;49.868;8.660;2023-05-20T12:54:36;31.40;60.40
4910;DHT22;2470;49.868;8.660;2023-05-20T12:57:01;32.10;59.50
4910;DHT22;2470;49.868;8.660;2023-05-20T12:59:27;32.90;57.10
4910;DHT22;2470;49.868;8.660;2023-05-20T13:01:53;31.80;56.20
4910;DHT22;2470;49.868;8.660;2023-05-20T13:04:18;30.10;57.50
4910;DHT22;2470;49.868;8.660;2023-05-20T13:06:44;28.50;60.20
4910;DHT22;2470;49.868;8.660;2023-05-20T13:09:09;27.20;62.40
4910;DHT22;2470;49.868;8.660;2023-05-20T13:11:35;26.10;65.40
4910;DHT22;2470;49.868;8.660;2023-05-20T13:14:00;25.60;67.30
4910;DHT22;2470;49.868;8.660;2023-05-20T13:16:26;25.30;67.60
4910;DHT22;2470;49.868;8.660;2023-05-20T13:18:51;24.90;68.50
4910;DHT22;2470;49.868;8.660;2023-05-20T13:21:17;24.50;69.90
4910;DHT22;2470;49.868;8.660;2023-05-20T13:23:43;24.70;71.00
4910;DHT22;2470;49.868;8.660;2023-05-20T13:26:09;25.00;70.70
4910;DHT22;2470;49.868;8.660;2023-05-20T13:28:34;25.20;69.70
4910;DHT22;2470;49.868;8.660;2023-05-20T13:31:01;25.30;69.70
4910;DHT22;2470;49.868;8.660;2023-05-20T13:33:27;25.80;71.00
4910;DHT22;2470;49.868;8.660;2023-05-20T13:35:53;28.00;68.00
4910;DHT22;2470;49.868;8.660;2023-05-20T13:38:18;30.20;63.90
4910;DHT22;2470;49.868;8.660;2023-05-20T13:40:44;30.60;60.70
4910;DHT22;2470;49.868;8.660;2023-05-20T13:43:09;30.10;60.10
4910;DHT22;2470;49.868;8.660;2023-05-20T13:45:34;29.70;61.00
4910;DHT22;2470;49.868;8.660;2023-05-20T13:48:00;29.60;61.50
4910;DHT22;2470;49.868;8.660;2023-05-20T13:50:26;30.70;59.80
4910;DHT22;2470;49.868;8.660;2023-05-20T13:52:51;33.20;57.30
4910;DHT22;2470;49.868;8.660;2023-05-20T13:55:17;35.20;53.40
4910;DHT22;2470;49.868;8.660;2023-05-20T13:57:42;36.90;50.20
4910;DHT22;2470;49.868;8.660;2023-05-20T14:00:08;38.40;46.50
4910;DHT22;2470;49.868;8.660;2023-05-20T14:02:34;39.40;44.10
4910;DHT22;2470;49.868;8.660;2023-05-20T14:05:00;39.50;42.90
4910;DHT22;2470;49.868;8.660;2023-05-20T14:07:26;38.60;42.80
4910;DHT22;2470;49.868;8.660;2023-05-20T14:09:52;37.50;43.60
4910;DHT22;2470;49.868;8.660;2023-05-20T14:12:17;35.40;44.90
4910;DHT22;2470;49.868;8.660;2023-05-20T14:14:43;34.00;46.60
4910;DHT22;2470;49.868;8.660;2023-05-20T14:17:09;34.10;47.70
4910;DHT22;2470;49.868;8.660;2023-05-20T14:19:35;35.40;46.70
4910;DHT22;2470;49.868;8.660;2023-05-20T14:22:00;36.10;45.30
4910;DHT22;2470;49.868;8.660;2023-05-20T14:24:26;36.20;44.30
4910;DHT22;2470;49.868;8.660;2023-05-20T14:26:52;34.90;45.10
4910;DHT22;2470;49.868;8.660;2023-05-20T14:29:17;33.20;46.40
4910;DHT22;2470;49.868;8.660;2023-05-20T14:31:43;32.50;48.90
4910;DHT22;2470;49.868;8.660;2023-05-20T14:34:09;33.70;48.50
4910;DHT22;2470;49.868;8.660;2023-05-20T14:36:35;34.20;46.90
4910;DHT22;2470;49.868;8.660;2023-05-20T14:39:00;35.20;46.00
4910;DHT22;2470;49.868;8.660;2023-05-20T14:41:26;35.80;44.90
4910;DHT22;2470;49.868;8.660;2023-05-20T14:43:51;36.50;44.20
4910;DHT22;2470;49.868;8.660;2023-05-20T14:46:17;35.80;44.00
4910;DHT22;2470;49.868;8.660;2023-05-20T14:48:42;33.90;45.70
4910;DHT22;2470;49.868;8.660;2023-05-20T14:51:08;32.40;48.10
4910;DHT22;2470;49.868;8.660;2023-05-20T14:53:33;32.10;49.50
4910;DHT22;2470;49.868;8.660;2023-05-20T14:55:59;31.90;49.50
4910;DHT22;2470;49.868;8.660;2023-05-20T14:58:25;30.80;50.00
4910;DHT22;2470;49.868;8.660;2023-05-20T15:00:52;30.90;51.80
4910;DHT22;2470;49.868;8.660;2023-05-20T15:03:17;32.50;50.70
4910;DHT22;2470;49.868;8.660;2023-05-20T15:05:43;34.00;48.00
4910;DHT22;2470;49.868;8.660;2023-05-20T15:08:08;35.10;46.40
4910;DHT22;2470;49.868;8.660;2023-05-20T15:10:34;35.60;45.40
4910;DHT22;2470;49.868;8.660;2023-05-20T15:13:00;35.90;45.00
4910;DHT22;2470;49.868;8.660;2023-05-20T15:15:25;36.30;44.50
4910;DHT22;2470;49.868;8.660;2023-05-20T15:17:51;36.70;43.90
4910;DHT22;2470;49.868;8.660;2023-05-20T15:20:16;37.00;43.50
4910;DHT22;2470;49.868;8.660;2023-05-20T15:22:42;37.00;43.00
4910;DHT22;2470;49.868;8.660;2023-05-20T15:25:11;36.50;42.90
4910;DHT22;2470;49.868;8.660;2023-05-20T15:27:37;35.10;44.40
4910;DHT22;2470;49.868;8.660;2023-05-20T15:30:03;34.40;45.80
4910;DHT22;2470;49.868;8.660;2023-05-20T15:32:28;33.50;46.50
4910;DHT22;2470;49.868;8.660;2023-05-20T15:34:54;32.40;47.60
4910;DHT22;2470;49.868;8.660;2023-05-20T15:37:19;31.20;49.50
4910;DHT22;2470;49.868;8.660;2023-05-20T15:39:46;30.30;50.60
4910;DHT22;2470;49.868;8.660;2023-05-20T15:42:11;29.50;51.50
4910;DHT22;2470;49.868;8.660;2023-05-20T15:44:38;28.70;52.70
4910;DHT22;2470;49.868;8.660;2023-05-20T15:47:04;28.20;54.00
4910;DHT22;2470;49.868;8.660;2023-05-20T15:49:30;27.60;55.20
4910;DHT22;2470;49.868;8.660;2023-05-20T15:51:55;27.10;56.10
4910;DHT22;2470;49.868;8.660;2023-05-20T15:54:21;26.70;56.70
4910;DHT22;2470;49.868;8.660;2023-05-20T15:56:47;26.30;57.40
4910;DHT22;2470;49.868;8.660;2023-05-20T15:59:12;26.00;58.40
4910;DHT22;2470;49.868;8.660;2023-05-20T16:01:38;25.70;58.80